アルハンゲリスク の空港の天気 - METARとTAF

Arhangel'Sk ( ULAA / ARH ) - ロシア アルハンゲリスク
飛行場実況気象(Metar)
観測時間01/23 07:00 MSK (01/23 04:00 UTC)
風向・風速南南東 5m/s
視程6000m
天気現象弱い雪
全天を覆う雲 雲底高度 240m
気温-14℃
湿度92%
気圧1015hPa
METARULAA 230400Z 15005MPS 110V230 6000 -SN OVC008 M14/M15 Q1015 R08/490540 NOSIG RMK QFE760/1013
過去の天気等 Google飛行場航空写真 Wunderground天気予報

過去48時間のMETAR

飛行場予報(TAF)
発表時間: 1/23 05:00 MSK (1/23 02:00 UTC)
予報対象時間: 23日6時 MSK ~ 24日6時 MSK
風向・風速南 6m/s
視程4,000m
天気現象弱い雪
全天の8割程度の雲 雲底高度 240m
全天の8割程度の雲 雲底高度 340m
23日6時 MSK ~ 23日12時 MSK に一時的に
風向・風速南南東 7m/s 瞬間風速 12m/s
視程2,100m
天気現象弱いしゅう雪 高い地吹雪
全天の8割程度の雲 雲底高度 150m
全天の8割程度の積乱雲 雲底高度 340m
23日12時 MSK ~ 23日21時 MSK に一時的に
風向・風速南東 6m/s 瞬間風速 11m/s
視程3,100m
天気現象弱いしゅう雪 高い地吹雪
全天の8割程度の雲 雲底高度 210m
全天の8割程度の積乱雲 雲底高度 340m
23日21時 MSK ~ 24日6時 MSK に一時的に
風向・風速南南東 5m/s 瞬間風速 10m/s
視程3,100m
天気現象弱いしゅう雪
全天の8割程度の積乱雲 雲底高度 340m
TAF ULAA 230200Z 2303/2403 18006MPS 4000 -SN BKN008 BKN011
TEMPO 2303/2309 15007G12MPS 2100 -SHSN BLSN BKN005 BKN011CB
TEMPO 2309/2318 14006G11MPS 3100 -SHSN BLSN BKN007 BKN011CB
TEMPO 2318/2403 15005G10MPS 3100 -SHSN BKN011CB